CMA CGM Swordfish — 2ABB2 — position and weather

sailwx.info

Track history (hours):
 
Tides and Currents Weather Stations Pressure Air Temp Water Temp Dewpoint Dewpoint Depression Visibility Wind Speed Wind Dir Waves Ship Positions

CMA CGM Swordfish

Last reported at 2018-Apr-24 16:05 UTC. Time now 2018-Apr-27 02:26 UTC.
Position N 01°29' E 104°36'.

Length 294 m; draft 9.7 m.

Type: Cargo ship. MMSI: 235058391.

Date/timePositionNaut miles runAvg speedWind from/ knotsBaromVisibWave heightAir tempDewpointWater temp
2018-Apr-24 16:05N 01°29' E 104°36'216.8
2018-Apr-24 15:58N 01°28' E 104°34'816.9
2018-Apr-24 15:30N 01°24' E 104°27'916.3
2018-Apr-24 14:58N 01°18' E 104°21'715.9
2018-Apr-24 14:30N 01°16' E 104°13'816.0
2018-Apr-24 14:00N 01°16' E 104°06'816.6
2018-Apr-24 13:30N 01°14' E 103°57'815.0
2018-Apr-24 13:00N 01°11' E 103°50'4 7.2
2018-Apr-24 12:30N 01°14' E 103°47'2 3.4
2018-Apr-24 11:55N 01°16' E 103°47'0 0.0
2018-Apr-24 11:28N 01°16' E 103°47'0 0.0
2018-Apr-24 10:55N 01°16' E 103°47'0 0.0
2018-Apr-24 10:28N 01°16' E 103°47'0 0.0
2018-Apr-24 09:58N 01°16' E 103°47'0 0.0
2018-Apr-24 09:28N 01°16' E 103°47'0 0.0
2018-Apr-24 09:00N 01°16' E 103°47'0 0.0
2018-Apr-24 08:28N 01°16' E 103°47'0 0.0
2018-Apr-24 07:55N 01°16' E 103°47'0 0.0
2018-Apr-24 07:28N 01°16' E 103°47'0 0.0
2018-Apr-24 06:58N 01°16' E 103°47'0 0.0
2018-Apr-24 06:30N 01°16' E 103°47'0 0.0
2018-Apr-24 05:58N 01°16' E 103°47'0 0.0
2018-Apr-24 05:28N 01°16' E 103°47'0 0.0
2018-Apr-24 04:40N 01°16' E 103°47'0 0.0
2018-Apr-24 04:30N 01°16' E 103°47'0 0.0
2018-Apr-24 04:00N 01°16' E 103°47'0 0.0
2018-Apr-24 03:30N 01°15' E 103°47'0 0.0
2018-Apr-24 02:52N 01°16' E 103°47'0 0.0
2018-Apr-24 02:25N 01°16' E 103°47'0 0.0
2018-Apr-24 02:00N 01°16' E 103°47'0 0.0
2018-Apr-24 01:28N 01°16' E 103°47'0 0.0
2018-Apr-24 00:55N 01°16' E 103°47'0 0.0
2018-Apr-24 00:30N 01°16' E 103°47'0 0.0
2018-Apr-23 23:58N 01°16' E 103°47'0 0.0
2018-Apr-23 23:30N 01°16' E 103°47'0 0.0
2018-Apr-23 22:43N 01°16' E 103°47'0 0.0
2018-Apr-23 22:28N 01°16' E 103°47'0 0.0
2018-Apr-23 21:58N 01°16' E 103°47'0 0.0
2018-Apr-23 21:28N 01°16' E 103°47'0 0.0
2018-Apr-23 20:58N 01°16' E 103°47'0 0.0
2018-Apr-23 20:30N 01°16' E 103°47'0 0.0
2018-Apr-23 19:55N 01°16' E 103°47'0 0.0
2018-Apr-23 19:28N 01°16' E 103°47'0 0.0
2018-Apr-23 19:00N 01°16' E 103°47'0 0.0
2018-Apr-23 18:30N 01°16' E 103°47'0 0.0
2018-Apr-23 17:58N 01°16' E 103°47'0 0.0
2018-Apr-23 17:25N 01°15' E 103°47'0 1.2
2018-Apr-23 17:00N 01°16' E 103°46'3 6.2
2018-Apr-23 16:30N 01°13' E 103°48'5 9.6
2018-Apr-23 15:59N 01°13' E 103°53'2 3.5
2018-Apr-23 15:30N 01°14' E 103°55'3 5.5
2018-Apr-23 14:59N 01°15' E 103°57'4 7.5
2018-Apr-23 14:29N 01°16' E 104°01'5 9.2
2018-Apr-23 13:59N 01°17' E 104°05'5 9.2
2018-Apr-23 13:28N 01°17' E 104°10'5 9.3
2018-Apr-23 12:59N 01°17' E 104°15'5 9.7
2018-Apr-23 12:30N 01°18' E 104°19'610.2
2018-Apr-23 11:56N 01°22' E 104°24'4 9.8
2018-Apr-23 11:30N 01°25' E 104°27'510.5
2018-Apr-23 10:59N 01°27' E 104°32'1016.1
2018-Apr-23 10:22N 01°22' E 104°40'36817.7
2018-Apr-22 13:34S 04°09' E 107°23'120.2
2018-Apr-22 13:30S 04°10' E 107°22'1120.1
2018-Apr-22 12:58S 04°20' E 107°18'1220.1
2018-Apr-22 12:23S 04°31' E 107°14'920.2
2018-Apr-22 11:57S 04°39' E 107°12'1120.2
2018-Apr-22 11:24S 04°50' E 107°08'920.3
2018-Apr-22 10:59S 04°58' E 107°05'1020.4
2018-Apr-22 10:30S 05°07' E 107°03'1020.3
2018-Apr-22 10:00S 05°17' E 106°60'1020.0
2018-Apr-22 09:30S 05°27' E 106°57'1019.7
2018-Apr-22 09:00S 05°36' E 106°55'1019.1
2018-Apr-22 08:30S 05°46' E 106°55'1815.1
2018-Apr-22 07:19S 06°04' E 106°53'  
2018-Apr-18 15:35N 01°15' E 104°03'114.4
2018-Apr-18 15:30N 01°15' E 104°02'814.0
2018-Apr-18 14:57N 01°13' E 103°54'511.9
2018-Apr-18 14:30N 01°12' E 103°49'4 8.8
2018-Apr-18 14:00N 01°15' E 103°46'1 1.4
2018-Apr-18 13:29N 01°16' E 103°47'0 0.0
2018-Apr-18 12:59N 01°16' E 103°47'0 0.0
2018-Apr-18 12:29N 01°16' E 103°47'0 0.0
2018-Apr-18 11:59N 01°16' E 103°47'0 0.0
2018-Apr-18 11:29N 01°16' E 103°47'0 0.0
2018-Apr-18 10:53N 01°16' E 103°47'0 0.0
2018-Apr-18 10:29N 01°16' E 103°47'0 0.0
2018-Apr-18 09:59N 01°16' E 103°47'0 0.0
2018-Apr-18 09:29N 01°16' E 103°47'0 0.0
2018-Apr-18 08:59N 01°16' E 103°47'0 0.0
2018-Apr-18 08:26N 01°16' E 103°47'0 0.0
2018-Apr-18 07:59N 01°16' E 103°47'0 0.0
2018-Apr-18 07:29N 01°16' E 103°47'0 0.0
2018-Apr-18 06:49N 01°16' E 103°47'0 0.0
2018-Apr-18 06:28N 01°16' E 103°47'0 0.0
2018-Apr-18 05:58N 01°16' E 103°47'0 0.0
2018-Apr-18 05:28N 01°16' E 103°47'0 0.0
2018-Apr-18 04:58N 01°16' E 103°47'0 0.0
2018-Apr-18 04:26N 01°16' E 103°47'0 0.0
2018-Apr-18 03:59N 01°16' E 103°47'0 0.0
2018-Apr-18 03:29N 01°16' E 103°47'0 0.0
2018-Apr-18 02:59N 01°16' E 103°47'0 0.0
2018-Apr-18 02:29N 01°16' E 103°47'0 0.0
2018-Apr-18 01:59N 01°16' E 103°47'0 0.0
2018-Apr-18 01:29N 01°16' E 103°47'0 0.0
2018-Apr-18 00:56N 01°16' E 103°47'0 0.0
2018-Apr-18 00:29N 01°16' E 103°47'0 0.0
2018-Apr-17 23:59N 01°16' E 103°47'0 0.0
2018-Apr-17 23:29N 01°16' E 103°47'0 0.0
2018-Apr-17 22:59N 01°16' E 103°47'0 0.0
2018-Apr-17 22:29N 01°16' E 103°47'0 0.0
2018-Apr-17 21:59N 01°16' E 103°47'0 0.0
2018-Apr-17 21:29N 01°16' E 103°47'0 0.0
2018-Apr-17 20:56N 01°16' E 103°47'0 0.0
2018-Apr-17 20:29N 01°16' E 103°47'0 0.0
2018-Apr-17 19:59N 01°16' E 103°47'0 0.0
2018-Apr-17 19:29N 01°16' E 103°47'0 0.0
2018-Apr-17 18:59N 01°16' E 103°47'0 0.0
2018-Apr-17 18:29N 01°16' E 103°47'0 0.0
2018-Apr-17 17:59N 01°16' E 103°47'0 0.0
2018-Apr-17 17:29N 01°16' E 103°47'0 0.0
2018-Apr-17 16:59N 01°16' E 103°47'0 0.0
2018-Apr-17 16:29N 01°16' E 103°47'0 0.0
2018-Apr-17 15:59N 01°16' E 103°47'0 0.6
2018-Apr-17 15:31N 01°16' E 103°47'2 4.0
2018-Apr-17 15:00N 01°15' E 103°45'4 8.0
2018-Apr-17 14:30N 01°13' E 103°41'510.8
2018-Apr-17 14:00N 01°12' E 103°36'2 4.2
2018-Apr-17 13:30N 01°11' E 103°34'611.1
2018-Apr-17 12:59N 01°09' E 103°29'611.9
2018-Apr-17 12:30N 01°12' E 103°24'27 0.6
2018-Apr-15 16:12N 01°31' E 103°04'516.0
2018-Apr-15 15:54N 01°28' E 103°07'615.5
2018-Apr-15 15:30N 01°24' E 103°12'815.3
2018-Apr-15 14:59N 01°19' E 103°19'715.1
2018-Apr-15 14:30N 01°15' E 103°24'815.7
2018-Apr-15 14:01N 01°12' E 103°32'816.0
2018-Apr-15 13:30N 01°10' E 103°39'815.2
2018-Apr-15 13:00N 01°10' E 103°47'918.1
2018-Apr-15 12:30N 01°14' E 103°55'  
Track history (hours):
 
Tides and Currents Weather Stations Pressure Air Temp Water Temp Dewpoint Dewpoint Depression Visibility Wind Speed Wind Dir Waves Ship Positions

CMA CGM Swordfish

Last reported at 2018-Apr-24 16:05 UTC. Time now 2018-Apr-27 02:26 UTC.
Position N 01°29' E 104°36'.

Length 294 m; draft 9.7 m.

Type: Cargo ship. MMSI: 235058391.

Date/timePositionNaut miles runAvg speedWind from/ knotsBaromVisibWave heightAir tempDewpointWater temp
2018-Apr-24 16:05N 01°29' E 104°36'216.8
2018-Apr-24 15:58N 01°28' E 104°34'816.9
2018-Apr-24 15:30N 01°24' E 104°27'916.3
2018-Apr-24 14:58N 01°18' E 104°21'715.9
2018-Apr-24 14:30N 01°16' E 104°13'816.0
2018-Apr-24 14:00N 01°16' E 104°06'816.6
2018-Apr-24 13:30N 01°14' E 103°57'815.0
2018-Apr-24 13:00N 01°11' E 103°50'4 7.2
2018-Apr-24 12:30N 01°14' E 103°47'2 3.4
2018-Apr-24 11:55N 01°16' E 103°47'0 0.0
2018-Apr-24 11:28N 01°16' E 103°47'0 0.0
2018-Apr-24 10:55N 01°16' E 103°47'0 0.0
2018-Apr-24 10:28N 01°16' E 103°47'0 0.0
2018-Apr-24 09:58N 01°16' E 103°47'0 0.0
2018-Apr-24 09:28N 01°16' E 103°47'0 0.0
2018-Apr-24 09:00N 01°16' E 103°47'0 0.0
2018-Apr-24 08:28N 01°16' E 103°47'0 0.0
2018-Apr-24 07:55N 01°16' E 103°47'0 0.0
2018-Apr-24 07:28N 01°16' E 103°47'0 0.0
2018-Apr-24 06:58N 01°16' E 103°47'0 0.0
2018-Apr-24 06:30N 01°16' E 103°47'0 0.0
2018-Apr-24 05:58N 01°16' E 103°47'0 0.0
2018-Apr-24 05:28N 01°16' E 103°47'0 0.0
2018-Apr-24 04:40N 01°16' E 103°47'0 0.0
2018-Apr-24 04:30N 01°16' E 103°47'0 0.0
2018-Apr-24 04:00N 01°16' E 103°47'0 0.0
2018-Apr-24 03:30N 01°15' E 103°47'0 0.0
2018-Apr-24 02:52N 01°16' E 103°47'0 0.0
2018-Apr-24 02:25N 01°16' E 103°47'0 0.0
2018-Apr-24 02:00N 01°16' E 103°47'0 0.0
2018-Apr-24 01:28N 01°16' E 103°47'0 0.0
2018-Apr-24 00:55N 01°16' E 103°47'0 0.0
2018-Apr-24 00:30N 01°16' E 103°47'0 0.0
2018-Apr-23 23:58N 01°16' E 103°47'0 0.0
2018-Apr-23 23:30N 01°16' E 103°47'0 0.0
2018-Apr-23 22:43N 01°16' E 103°47'0 0.0
2018-Apr-23 22:28N 01°16' E 103°47'0 0.0
2018-Apr-23 21:58N 01°16' E 103°47'0 0.0
2018-Apr-23 21:28N 01°16' E 103°47'0 0.0
2018-Apr-23 20:58N 01°16' E 103°47'0 0.0
2018-Apr-23 20:30N 01°16' E 103°47'0 0.0
2018-Apr-23 19:55N 01°16' E 103°47'0 0.0
2018-Apr-23 19:28N 01°16' E 103°47'0 0.0
2018-Apr-23 19:00N 01°16' E 103°47'0 0.0
2018-Apr-23 18:30N 01°16' E 103°47'0 0.0
2018-Apr-23 17:58N 01°16' E 103°47'0 0.0
2018-Apr-23 17:25N 01°15' E 103°47'0 1.2
2018-Apr-23 17:00N 01°16' E 103°46'3 6.2
2018-Apr-23 16:30N 01°13' E 103°48'5 9.6
2018-Apr-23 15:59N 01°13' E 103°53'2 3.5
2018-Apr-23 15:30N 01°14' E 103°55'3 5.5
2018-Apr-23 14:59N 01°15' E 103°57'4 7.5
2018-Apr-23 14:29N 01°16' E 104°01'5 9.2
2018-Apr-23 13:59N 01°17' E 104°05'5 9.2
2018-Apr-23 13:28N 01°17' E 104°10'5 9.3
2018-Apr-23 12:59N 01°17' E 104°15'5 9.7
2018-Apr-23 12:30N 01°18' E 104°19'610.2
2018-Apr-23 11:56N 01°22' E 104°24'4 9.8
2018-Apr-23 11:30N 01°25' E 104°27'510.5
2018-Apr-23 10:59N 01°27' E 104°32'1016.1
2018-Apr-23 10:22N 01°22' E 104°40'36817.7
2018-Apr-22 13:34S 04°09' E 107°23'120.2
2018-Apr-22 13:30S 04°10' E 107°22'1120.1
2018-Apr-22 12:58S 04°20' E 107°18'1220.1
2018-Apr-22 12:23S 04°31' E 107°14'920.2
2018-Apr-22 11:57S 04°39' E 107°12'1120.2
2018-Apr-22 11:24S 04°50' E 107°08'920.3
2018-Apr-22 10:59S 04°58' E 107°05'1020.4
2018-Apr-22 10:30S 05°07' E 107°03'1020.3
2018-Apr-22 10:00S 05°17' E 106°60'1020.0
2018-Apr-22 09:30S 05°27' E 106°57'1019.7
2018-Apr-22 09:00S 05°36' E 106°55'1019.1
2018-Apr-22 08:30S 05°46' E 106°55'1815.1
2018-Apr-22 07:19S 06°04' E 106°53'  
2018-Apr-18 15:35N 01°15' E 104°03'114.4
2018-Apr-18 15:30N 01°15' E 104°02'814.0
2018-Apr-18 14:57N 01°13' E 103°54'511.9
2018-Apr-18 14:30N 01°12' E 103°49'4 8.8
2018-Apr-18 14:00N 01°15' E 103°46'1 1.4
2018-Apr-18 13:29N 01°16' E 103°47'0 0.0
2018-Apr-18 12:59N 01°16' E 103°47'0 0.0
2018-Apr-18 12:29N 01°16' E 103°47'0 0.0
2018-Apr-18 11:59N 01°16' E 103°47'0 0.0
2018-Apr-18 11:29N 01°16' E 103°47'0 0.0
2018-Apr-18 10:53N 01°16' E 103°47'0 0.0
2018-Apr-18 10:29N 01°16' E 103°47'0 0.0
2018-Apr-18 09:59N 01°16' E 103°47'0 0.0
2018-Apr-18 09:29N 01°16' E 103°47'0 0.0
2018-Apr-18 08:59N 01°16' E 103°47'0 0.0
2018-Apr-18 08:26N 01°16' E 103°47'0 0.0
2018-Apr-18 07:59N 01°16' E 103°47'0 0.0
2018-Apr-18 07:29N 01°16' E 103°47'0 0.0
2018-Apr-18 06:49N 01°16' E 103°47'0 0.0
2018-Apr-18 06:28N 01°16' E 103°47'0 0.0
2018-Apr-18 05:58N 01°16' E 103°47'0 0.0
2018-Apr-18 05:28N 01°16' E 103°47'0 0.0
2018-Apr-18 04:58N 01°16' E 103°47'0 0.0
2018-Apr-18 04:26N 01°16' E 103°47'0 0.0
2018-Apr-18 03:59N 01°16' E 103°47'0 0.0
2018-Apr-18 03:29N 01°16' E 103°47'0 0.0
2018-Apr-18 02:59N 01°16' E 103°47'0 0.0
2018-Apr-18 02:29N 01°16' E 103°47'0 0.0
2018-Apr-18 01:59N 01°16' E 103°47'0 0.0
2018-Apr-18 01:29N 01°16' E 103°47'0 0.0
2018-Apr-18 00:56N 01°16' E 103°47'0 0.0
2018-Apr-18 00:29N 01°16' E 103°47'0 0.0
2018-Apr-17 23:59N 01°16' E 103°47'0 0.0
2018-Apr-17 23:29N 01°16' E 103°47'0 0.0
2018-Apr-17 22:59N 01°16' E 103°47'0 0.0
2018-Apr-17 22:29N 01°16' E 103°47'0 0.0
2018-Apr-17 21:59N 01°16' E 103°47'0 0.0
2018-Apr-17 21:29N 01°16' E 103°47'0 0.0
2018-Apr-17 20:56N 01°16' E 103°47'0 0.0
2018-Apr-17 20:29N 01°16' E 103°47'0 0.0
2018-Apr-17 19:59N 01°16' E 103°47'0 0.0
2018-Apr-17 19:29N 01°16' E 103°47'0 0.0
2018-Apr-17 18:59N 01°16' E 103°47'0 0.0
2018-Apr-17 18:29N 01°16' E 103°47'0 0.0
2018-Apr-17 17:59N 01°16' E 103°47'0 0.0
2018-Apr-17 17:29N 01°16' E 103°47'0 0.0
2018-Apr-17 16:59N 01°16' E 103°47'0 0.0
2018-Apr-17 16:29N 01°16' E 103°47'0 0.0
2018-Apr-17 15:59N 01°16' E 103°47'0 0.6
2018-Apr-17 15:31N 01°16' E 103°47'2 4.0
2018-Apr-17 15:00N 01°15' E 103°45'4 8.0
2018-Apr-17 14:30N 01°13' E 103°41'510.8
2018-Apr-17 14:00N 01°12' E 103°36'2 4.2
2018-Apr-17 13:30N 01°11' E 103°34'611.1
2018-Apr-17 12:59N 01°09' E 103°29'611.9
2018-Apr-17 12:30N 01°12' E 103°24'27 0.6
2018-Apr-15 16:12N 01°31' E 103°04'516.0
2018-Apr-15 15:54N 01°28' E 103°07'615.5
2018-Apr-15 15:30N 01°24' E 103°12'815.3
2018-Apr-15 14:59N 01°19' E 103°19'715.1
2018-Apr-15 14:30N 01°15' E 103°24'815.7
2018-Apr-15 14:01N 01°12' E 103°32'816.0
2018-Apr-15 13:30N 01°10' E 103°39'815.2
2018-Apr-15 13:00N 01°10' E 103°47'918.1
2018-Apr-15 12:30N 01°14' E 103°55'  

Dump ship's entire track history